createdAt,value
2023-04-23T00:02:06.299Z,46.13
2023-04-23T00:04:36.487Z,48.22
2023-04-23T00:07:04.131Z,48.22
2023-04-23T00:09:32.569Z,48.03
2023-04-23T00:12:00.007Z,45.40
2023-04-23T00:14:26.881Z,49.03
2023-04-23T00:16:54.017Z,43.33
2023-04-23T00:19:20.962Z,43.75
2023-04-23T00:21:49.647Z,47.33
2023-04-23T00:24:16.331Z,44.42
2023-04-23T00:26:43.192Z,47.03
2023-04-23T00:29:09.854Z,46.08
2023-04-23T00:31:36.510Z,46.45
2023-04-23T00:34:03.338Z,49.20
2023-04-23T00:36:30.080Z,47.20
2023-04-23T00:38:56.848Z,45.85
2023-04-23T00:41:23.823Z,53.17
2023-04-23T00:43:52.736Z,43.88
2023-04-23T00:46:19.466Z,49.03
2023-04-23T00:48:47.922Z,48.20
2023-04-23T00:51:16.709Z,48.65
2023-04-23T00:53:43.338Z,46.90
2023-04-23T00:56:11.365Z,47.22
2023-04-23T00:58:38.029Z,49.40
2023-04-23T01:01:06.213Z,45.60
2023-04-23T01:03:36.519Z,44.50
2023-04-23T01:06:04.173Z,43.72
2023-04-23T01:08:32.151Z,42.90
2023-04-23T01:10:59.956Z,45.03
2023-04-23T01:13:29.624Z,45.95
2023-04-23T01:15:56.901Z,45.88
2023-04-23T01:18:25.093Z,48.45
2023-04-23T01:20:52.014Z,44.38
2023-04-23T01:23:20.402Z,45.58
2023-04-23T01:25:47.230Z,48.47
2023-04-23T01:28:14.017Z,47.13
2023-04-23T01:30:44.076Z,45.13
2023-04-23T01:33:11.494Z,46.92
2023-04-23T01:35:40.746Z,44.60
2023-04-23T01:38:11.041Z,44.50
2023-04-23T01:40:38.567Z,45.30
2023-04-23T01:43:07.360Z,47.20
2023-04-23T01:45:34.072Z,46.08
2023-04-23T01:48:01.099Z,48.80
2023-04-23T01:50:29.771Z,49.33
2023-04-23T01:52:56.455Z,49.38
2023-04-23T01:55:23.719Z,52.17
2023-04-23T01:57:51.665Z,51.03
2023-04-23T02:00:18.760Z,48.45
2023-04-23T02:02:45.610Z,49.00
2023-04-23T02:05:15.157Z,48.00
2023-04-23T02:07:44.996Z,48.13
2023-04-23T02:10:12.245Z,48.65
2023-04-23T02:12:40.109Z,47.42
2023-04-23T02:15:10.372Z,48.80
2023-04-23T02:17:37.665Z,47.55
2023-04-23T02:20:09.917Z,44.97
2023-04-23T02:22:40.946Z,47.45
2023-04-23T02:25:08.301Z,45.47
2023-04-23T02:27:35.495Z,47.45
2023-04-23T02:30:02.552Z,46.67
2023-04-23T02:32:29.296Z,47.33
2023-04-23T02:34:56.565Z,45.55
2023-04-23T02:37:23.189Z,44.40
2023-04-23T02:39:49.892Z,42.80
2023-04-23T02:42:16.937Z,41.85
2023-04-23T02:44:43.643Z,44.88
2023-04-23T02:47:10.554Z,44.42
2023-04-23T02:49:37.161Z,44.22
2023-04-23T02:52:05.236Z,44.60
2023-04-23T02:54:32.431Z,44.35
2023-04-23T02:57:00.090Z,43.85
2023-04-23T02:59:26.694Z,46.15
2023-04-23T03:01:53.322Z,43.30
2023-04-23T03:04:20.587Z,45.67
2023-04-23T03:06:48.987Z,46.95
2023-04-23T03:09:15.802Z,46.65
2023-04-23T03:11:42.536Z,46.80
2023-04-23T03:14:12.637Z,46.28
2023-04-23T03:16:39.373Z,44.42
2023-04-23T03:19:06.397Z,47.13
2023-04-23T03:21:33.097Z,45.60
2023-04-23T03:24:00.168Z,45.40
2023-04-23T03:26:27.804Z,44.60
2023-04-23T03:28:54.428Z,43.55
2023-04-23T03:31:21.075Z,44.67
2023-04-23T03:33:47.820Z,46.83
2023-04-23T03:36:21.421Z,44.63
2023-04-23T03:38:48.179Z,44.63
2023-04-23T03:41:15.820Z,45.35
2023-04-23T03:43:42.810Z,43.42
2023-04-23T03:46:32.484Z,45.60
2023-04-23T03:48:59.134Z,44.17
2023-04-23T03:51:28.135Z,43.15
2023-04-23T03:53:55.206Z,42.40
2023-04-23T03:56:34.638Z,41.75
2023-04-23T03:59:13.019Z,40.95
2023-04-23T04:01:39.797Z,42.60
2023-04-23T04:04:06.724Z,41.20
2023-04-23T04:06:33.547Z,41.22
2023-04-23T04:09:00.337Z,40.83
2023-04-23T04:11:27.816Z,38.55
2023-04-23T04:13:54.436Z,39.83
2023-04-23T04:16:21.064Z,40.80
2023-04-23T04:18:47.662Z,39.15
2023-04-23T04:21:14.300Z,39.58
2023-04-23T04:23:40.868Z,40.78
2023-04-23T04:26:08.061Z,38.80
2023-04-23T04:28:37.295Z,40.22
2023-04-23T04:31:05.484Z,38.20
2023-04-23T04:33:33.182Z,39.08
2023-04-23T04:36:00.537Z,36.85
2023-04-23T04:38:27.212Z,38.30
2023-04-23T04:41:00.080Z,38.50
2023-04-23T04:43:27.095Z,37.70
2023-04-23T04:45:53.800Z,36.60
2023-04-23T04:48:20.662Z,38.65
2023-04-23T04:50:47.798Z,36.35
2023-04-23T04:53:14.654Z,35.95
2023-04-23T04:55:41.568Z,36.33
2023-04-23T04:58:08.260Z,35.95
2023-04-23T05:00:34.870Z,34.20
2023-04-23T05:03:01.752Z,35.05
2023-04-23T05:05:29.544Z,35.80
2023-04-23T05:07:59.041Z,32.08
2023-04-23T05:10:26.377Z,33.17
2023-04-23T05:12:53.260Z,31.02
2023-04-23T05:15:19.978Z,31.08
2023-04-23T05:17:47.641Z,30.67
2023-04-23T05:20:14.683Z,29.90
2023-04-23T05:22:42.949Z,27.75
2023-04-23T05:25:12.039Z,29.15
2023-04-23T05:27:38.995Z,30.88
2023-04-23T05:30:08.391Z,29.05
2023-04-23T05:32:35.816Z,30.35
2023-04-23T05:35:03.804Z,29.95
2023-04-23T05:37:30.828Z,28.40
2023-04-23T05:39:58.348Z,29.42
2023-04-23T05:42:26.050Z,26.95
2023-04-23T05:44:52.727Z,29.70
2023-04-23T05:47:21.309Z,27.33
2023-04-23T05:49:47.951Z,28.38
2023-04-23T05:52:14.635Z,26.00
2023-04-23T05:54:42.342Z,26.55
2023-04-23T05:57:09.177Z,28.38
2023-04-23T05:59:36.100Z,25.40
2023-04-23T06:02:02.926Z,24.92
2023-04-23T06:04:29.909Z,27.35
2023-04-23T06:06:56.774Z,27.15
2023-04-23T06:09:23.445Z,24.20
2023-04-23T06:11:52.363Z,26.88
2023-04-23T06:14:18.989Z,24.45
2023-04-23T06:16:45.537Z,25.45
2023-04-23T06:19:12.154Z,24.00
2023-04-23T06:21:39.970Z,23.77
2023-04-23T06:24:07.999Z,23.70
2023-04-23T06:26:35.000Z,25.85
2023-04-23T06:29:09.643Z,23.33
2023-04-23T06:31:41.967Z,22.65
2023-04-23T06:34:08.666Z,22.77
2023-04-23T06:36:35.233Z,23.70
2023-04-23T06:39:01.761Z,22.95
2023-04-23T06:41:28.370Z,23.88
2023-04-23T06:44:14.053Z,23.17
2023-04-23T06:46:47.861Z,24.40
2023-04-23T06:49:14.457Z,22.30
2023-04-23T06:51:40.988Z,19.90
2023-04-23T06:54:07.549Z,15.73
2023-04-23T06:56:34.115Z,14.75
2023-04-23T06:59:01.046Z,11.80
2023-04-23T07:01:28.347Z,10.93
2023-04-23T07:03:55.254Z,10.13
2023-04-23T07:06:21.862Z,9.77
2023-04-23T07:08:48.788Z,9.48
2023-04-23T07:11:15.451Z,9.65
2023-04-23T07:13:42.440Z,10.13
2023-04-23T07:16:09.106Z,9.15
2023-04-23T07:18:35.674Z,9.02
2023-04-23T07:21:02.664Z,8.73
2023-04-23T07:23:29.181Z,8.82
2023-04-23T07:25:55.718Z,7.90
2023-04-23T07:28:22.370Z,8.73
2023-04-23T07:30:49.169Z,8.48
2023-04-23T07:33:15.943Z,8.43
2023-04-23T07:35:42.514Z,7.05
2023-04-23T07:38:09.077Z,7.88
2023-04-23T07:40:36.960Z,7.65
2023-04-23T07:43:03.610Z,8.27
2023-04-23T07:45:30.265Z,6.80
2023-04-23T07:47:57.572Z,7.03
2023-04-23T07:50:24.362Z,6.97
2023-04-23T07:52:51.061Z,7.03
2023-04-23T07:55:17.740Z,6.80
2023-04-23T07:57:44.313Z,7.30
2023-04-23T08:00:11.361Z,6.82
2023-04-23T08:02:40.992Z,6.00
2023-04-23T08:05:08.363Z,5.97
2023-04-23T08:07:35.087Z,5.90
2023-04-23T08:10:08.504Z,6.00
2023-04-23T08:12:36.039Z,5.75
2023-04-23T08:15:03.587Z,4.97
2023-04-23T08:17:36.923Z,5.40
2023-04-23T08:20:06.736Z,5.22
2023-04-23T08:22:33.328Z,5.40
2023-04-23T08:24:59.957Z,5.00
2023-04-23T08:27:26.633Z,4.95
2023-04-23T08:29:54.256Z,4.88
2023-04-23T08:32:21.399Z,4.40
2023-04-23T08:34:48.059Z,4.07
2023-04-23T08:37:27.100Z,4.60
2023-04-23T08:42:40.505Z,3.72
2023-04-23T08:45:07.634Z,4.22
2023-04-23T08:47:36.150Z,4.43
2023-04-23T08:50:04.294Z,2.92
2023-04-23T08:52:34.825Z,3.65
2023-04-23T08:55:04.604Z,4.18
2023-04-23T08:57:31.718Z,3.85
2023-04-23T09:00:05.991Z,3.58
2023-04-23T09:05:05.404Z,2.85
2023-04-23T09:07:34.815Z,3.15
2023-04-23T09:10:02.588Z,2.42
2023-04-23T09:12:29.872Z,2.50
2023-04-23T09:14:57.059Z,2.90
2023-04-23T09:17:24.579Z,2.50
2023-04-23T09:19:51.915Z,2.47
2023-04-23T09:22:47.079Z,2.55
2023-04-23T09:25:19.441Z,2.83
2023-04-23T09:27:48.153Z,3.15
2023-04-23T09:30:15.407Z,2.78
2023-04-23T09:32:43.841Z,2.90
2023-04-23T09:35:15.208Z,2.30
2023-04-23T09:37:43.898Z,2.37
2023-04-23T09:40:13.760Z,2.20
2023-04-23T09:42:40.414Z,2.55
2023-04-23T09:45:09.361Z,2.45
2023-04-23T09:47:39.833Z,2.83
2023-04-23T09:50:07.419Z,2.10
2023-04-23T09:52:34.215Z,2.45
2023-04-23T09:55:05.650Z,2.33
2023-04-23T09:57:41.813Z,1.90
2023-04-23T10:00:21.201Z,1.90
2023-04-23T10:02:49.957Z,2.08
2023-04-23T10:05:24.174Z,2.00
2023-04-23T10:07:52.771Z,2.55
2023-04-23T10:10:20.345Z,1.75
2023-04-23T10:12:54.796Z,1.80
2023-04-23T10:15:23.648Z,1.55
2023-04-23T10:17:51.546Z,2.03
2023-04-23T10:20:21.222Z,1.70
2023-04-23T10:22:48.349Z,2.03
2023-04-23T10:25:15.578Z,1.85
2023-04-23T10:27:52.224Z,2.20
2023-04-23T10:30:22.100Z,1.55
2023-04-23T10:32:49.822Z,1.75
2023-04-23T10:35:16.820Z,1.80
2023-04-23T10:37:46.361Z,1.60
2023-04-23T10:40:14.796Z,1.95
2023-04-23T10:42:44.159Z,1.85
2023-04-23T10:47:48.793Z,1.52
2023-04-23T10:50:24.169Z,1.90
2023-04-23T10:52:53.415Z,1.65
2023-04-23T10:55:22.984Z,1.20
2023-04-23T10:58:01.983Z,1.73
2023-04-23T11:00:44.286Z,1.63
2023-04-23T11:03:30.356Z,1.65
2023-04-23T11:06:01.775Z,1.88
2023-04-23T11:08:33.433Z,1.42
2023-04-23T11:11:02.362Z,1.60
2023-04-23T11:13:30.180Z,1.58
2023-04-23T11:16:16.402Z,1.70
2023-04-23T11:18:59.974Z,1.80
2023-04-23T11:21:58.575Z,1.60
2023-04-23T11:24:33.304Z,1.58
2023-04-23T11:27:01.271Z,1.42
2023-04-23T11:29:28.711Z,1.70
2023-04-23T11:34:26.148Z,1.65
2023-04-23T11:36:54.662Z,1.90
2023-04-23T11:39:24.157Z,1.52
2023-04-23T11:41:52.314Z,1.35
2023-04-23T11:44:21.077Z,1.55
2023-04-23T11:46:49.373Z,1.65
2023-04-23T11:49:18.555Z,1.15
2023-04-23T11:51:46.460Z,2.00
2023-04-23T11:54:13.888Z,2.00
2023-04-23T11:56:41.184Z,1.85
2023-04-23T11:59:08.325Z,1.90
2023-04-23T12:01:48.427Z,1.52
2023-04-23T12:04:17.365Z,1.75
2023-04-23T12:06:46.856Z,1.33
2023-04-23T12:09:14.991Z,1.30
2023-04-23T12:11:43.172Z,1.10
2023-04-23T12:14:12.540Z,1.73
2023-04-23T12:16:47.107Z,1.45
2023-04-23T12:19:44.701Z,1.40
2023-04-23T12:22:11.253Z,1.67
2023-04-23T12:24:51.310Z,1.40
2023-04-23T12:27:21.937Z,1.35
2023-04-23T12:29:49.251Z,1.77
2023-04-23T12:32:15.805Z,1.52
2023-04-23T12:34:56.000Z,1.50
2023-04-23T12:37:27.130Z,1.55
2023-04-23T12:39:56.310Z,1.10
2023-04-23T12:42:22.956Z,1.02
2023-04-23T12:44:51.599Z,1.60
2023-04-23T12:47:21.182Z,1.50
2023-04-23T12:49:52.891Z,1.35
2023-04-23T12:52:19.731Z,1.30
2023-04-23T12:54:46.330Z,1.20
2023-04-23T12:57:14.271Z,1.17
2023-04-23T12:59:41.409Z,1.30
2023-04-23T13:02:09.210Z,1.17
2023-04-23T13:04:36.832Z,1.10
2023-04-23T13:07:04.927Z,1.10
2023-04-23T13:09:31.790Z,1.33
2023-04-23T13:11:59.924Z,1.20
2023-04-23T13:14:27.861Z,0.90
2023-04-23T13:16:54.428Z,1.00
2023-04-23T13:19:21.095Z,1.13
2023-04-23T13:21:47.696Z,0.95
2023-04-23T13:24:15.641Z,1.48
2023-04-23T13:26:42.457Z,1.25
2023-04-23T13:29:09.157Z,1.08
2023-04-23T13:31:35.902Z,0.90
2023-04-23T13:34:03.041Z,1.20
2023-04-23T13:36:30.894Z,1.38
2023-04-23T13:38:57.688Z,1.40
2023-04-23T13:41:24.423Z,1.20
2023-04-23T13:43:51.222Z,1.02
2023-04-23T13:46:19.518Z,1.00
2023-04-23T13:48:46.223Z,1.17
2023-04-23T13:51:32.528Z,1.00
2023-04-23T13:53:59.544Z,1.45
2023-04-23T13:56:30.392Z,1.00
2023-04-23T13:59:18.347Z,1.10
2023-04-23T14:01:49.575Z,1.15
2023-04-23T14:04:17.355Z,1.25
2023-04-23T14:06:44.306Z,0.88
2023-04-23T14:09:11.316Z,1.38
2023-04-23T14:11:40.198Z,1.63
2023-04-23T14:14:07.472Z,0.98
2023-04-23T14:16:34.056Z,1.00
2023-04-23T14:19:00.822Z,1.02
2023-04-23T14:21:27.558Z,0.90
2023-04-23T14:24:04.609Z,1.30
2023-04-23T14:26:44.932Z,1.10
2023-04-23T14:29:36.360Z,0.90
2023-04-23T14:32:03.308Z,1.00
2023-04-23T14:34:30.007Z,1.08
2023-04-23T14:36:56.687Z,1.17
2023-04-23T14:39:23.481Z,1.10
2023-04-23T14:41:50.185Z,0.88
2023-04-23T14:44:17.886Z,1.02
2023-04-23T14:46:44.618Z,0.93
2023-04-23T14:49:11.426Z,1.48
2023-04-23T14:51:38.204Z,1.30
2023-04-23T14:54:05.005Z,1.35
2023-04-23T14:56:31.678Z,1.17
2023-04-23T14:58:59.616Z,1.27
2023-04-23T15:01:26.282Z,1.52
2023-04-23T15:03:53.670Z,1.38
2023-04-23T15:06:20.632Z,1.27
2023-04-23T15:08:47.328Z,1.30
2023-04-23T15:11:14.200Z,1.50
2023-04-23T15:13:48.712Z,1.10
2023-04-23T15:16:48.286Z,1.42
2023-04-23T15:19:18.567Z,1.50
2023-04-23T15:21:46.448Z,1.52
2023-04-23T15:24:13.357Z,1.77
2023-04-23T15:26:40.323Z,1.83
2023-04-23T15:29:09.067Z,1.70
2023-04-23T15:31:36.991Z,1.35
2023-04-23T15:34:08.495Z,1.65
2023-04-23T15:36:37.158Z,1.25
2023-04-23T15:39:03.923Z,2.70
2023-04-23T15:41:30.579Z,1.85
2023-04-23T15:43:57.175Z,1.67
2023-04-23T15:46:23.821Z,2.00
2023-04-23T15:48:50.451Z,1.75
2023-04-23T15:51:17.644Z,1.85
2023-04-23T15:53:44.377Z,1.80
2023-04-23T15:56:11.978Z,1.98
2023-04-23T15:58:38.769Z,1.70
2023-04-23T16:01:07.243Z,1.90
2023-04-23T16:03:34.505Z,1.48
2023-04-23T16:06:01.412Z,1.45
2023-04-23T16:08:29.125Z,1.40
2023-04-23T16:10:58.201Z,1.55
2023-04-23T16:13:25.289Z,1.40
2023-04-23T16:15:52.453Z,1.60
2023-04-23T16:18:19.193Z,1.50
2023-04-23T16:20:46.857Z,1.48
2023-04-23T16:23:14.356Z,1.27
2023-04-23T16:25:41.283Z,1.42
2023-04-23T16:28:07.898Z,2.20
2023-04-23T16:30:34.835Z,2.10
2023-04-23T16:33:02.465Z,2.00
2023-04-23T16:35:30.355Z,2.03
2023-04-23T16:37:57.013Z,1.60
2023-04-23T16:40:23.707Z,1.80
2023-04-23T16:42:50.322Z,1.77
2023-04-23T16:45:17.202Z,1.83
2023-04-23T16:47:44.282Z,2.00
2023-04-23T16:50:11.354Z,1.73
2023-04-23T16:52:38.122Z,1.30
2023-04-23T16:55:05.723Z,1.25
2023-04-23T16:57:33.091Z,3.10
2023-04-23T16:59:59.700Z,3.83
2023-04-23T17:02:26.773Z,3.28
2023-04-23T17:04:53.861Z,5.35
2023-04-23T17:07:20.864Z,2.60
2023-04-23T17:09:47.805Z,2.72
2023-04-23T17:12:17.071Z,2.50
2023-04-23T17:14:44.859Z,1.70
2023-04-23T17:17:11.573Z,1.80
2023-04-23T17:19:38.128Z,1.45
2023-04-23T17:22:06.262Z,1.90
2023-04-23T17:24:32.866Z,1.85
2023-04-23T17:27:01.562Z,2.40
2023-04-23T17:29:29.167Z,1.67
2023-04-23T17:31:56.217Z,1.60
2023-04-23T17:34:22.877Z,1.98
2023-04-23T17:36:49.508Z,1.92
2023-04-23T17:39:22.208Z,2.45
2023-04-23T17:41:49.813Z,1.45
2023-04-23T17:44:16.465Z,1.88
2023-04-23T17:46:42.982Z,1.80
2023-04-23T17:49:10.666Z,1.45
2023-04-23T17:51:38.465Z,1.77
2023-04-23T17:54:05.848Z,1.40
2023-04-23T17:56:32.568Z,2.00
2023-04-23T17:59:00.240Z,1.88
2023-04-23T18:01:28.066Z,2.03
2023-04-23T18:03:55.081Z,2.95
2023-04-23T18:06:22.684Z,2.35
2023-04-23T18:08:49.450Z,3.88
2023-04-23T18:11:16.101Z,2.70
2023-04-23T18:13:43.037Z,5.10
2023-04-23T18:16:09.612Z,5.45
2023-04-23T18:18:36.299Z,3.92
2023-04-23T18:21:04.467Z,3.47
2023-04-23T18:23:31.393Z,3.58
2023-04-23T18:26:01.442Z,3.85
2023-04-23T18:28:28.776Z,4.13
2023-04-23T18:31:01.946Z,2.20
2023-04-23T18:33:47.756Z,3.40
2023-04-23T18:36:25.450Z,2.78
2023-04-23T18:38:52.239Z,2.75
2023-04-23T18:41:18.864Z,2.90
2023-04-23T18:43:45.564Z,3.85
2023-04-23T18:46:12.658Z,6.18
2023-04-23T18:48:46.190Z,2.80
2023-04-23T18:51:43.684Z,2.92
2023-04-23T18:54:14.759Z,2.97
2023-04-23T18:56:42.343Z,3.53
2023-04-23T18:59:09.030Z,2.40
2023-04-23T19:01:35.943Z,3.05
2023-04-23T19:04:03.677Z,2.95
2023-04-23T19:06:31.208Z,3.60
2023-04-23T19:08:58.432Z,3.00
2023-04-23T19:11:26.968Z,4.10
2023-04-23T19:13:53.750Z,3.40
2023-04-23T19:16:20.529Z,3.25
2023-04-23T19:18:47.182Z,3.45
2023-04-23T19:21:13.952Z,5.20
2023-04-23T19:24:42.536Z,7.18
2023-04-23T19:29:31.606Z,3.47
2023-04-23T19:50:06.835Z,0.85
2023-04-23T19:52:37.029Z,0.82
2023-04-23T19:55:03.966Z,0.80
2023-04-23T19:57:30.808Z,0.65
2023-04-23T19:59:57.397Z,0.82
2023-04-23T20:02:24.077Z,0.70
2023-04-23T20:04:50.621Z,1.10
2023-04-23T20:07:17.254Z,0.45
2023-04-23T20:09:45.190Z,0.52
2023-04-23T20:12:13.785Z,0.30
2023-04-23T20:14:40.435Z,0.30
2023-04-23T20:17:07.763Z,0.47
2023-04-23T20:19:34.447Z,0.15
2023-04-23T20:22:02.391Z,0.20
2023-04-23T20:24:28.989Z,0.20
2023-04-23T20:26:56.501Z,0.38
2023-04-23T20:29:23.149Z,0.30
2023-04-23T20:31:49.904Z,0.40
2023-04-23T20:34:17.133Z,0.20
2023-04-23T20:36:47.012Z,0.52
2023-04-23T20:39:13.944Z,0.47
2023-04-23T20:41:40.891Z,0.63
2023-04-23T20:44:08.917Z,0.50
2023-04-23T20:46:36.698Z,1.70
2023-04-23T20:49:04.300Z,0.40
2023-04-23T20:51:34.536Z,0.45
2023-04-23T20:54:02.251Z,0.70
2023-04-23T20:56:29.412Z,1.00
2023-04-23T20:58:59.400Z,1.17
2023-04-23T21:01:26.681Z,2.13
2023-04-23T21:03:54.794Z,1.95
2023-04-23T21:06:22.132Z,2.47
2023-04-23T21:08:49.132Z,2.80
2023-04-23T21:11:20.337Z,3.42
2023-04-23T21:13:47.104Z,3.28
2023-04-23T21:16:14.100Z,2.95
2023-04-23T21:18:41.322Z,2.90
2023-04-23T21:21:08.123Z,3.08
2023-04-23T21:23:35.518Z,3.33
2023-04-23T21:26:03.564Z,3.33
2023-04-23T21:28:31.129Z,3.58
2023-04-23T21:31:06.614Z,3.08
2023-04-23T21:33:33.495Z,3.15
2023-04-23T21:36:00.110Z,3.20
2023-04-23T21:38:26.779Z,3.90
2023-04-23T21:40:53.399Z,4.03
2023-04-23T21:43:20.059Z,4.30
2023-04-23T21:45:46.772Z,4.53
2023-04-23T21:48:14.991Z,4.50
2023-04-23T21:50:41.855Z,4.40
2023-04-23T21:53:08.707Z,4.15
2023-04-23T21:55:35.734Z,4.15
2023-04-23T22:00:32.071Z,4.10
2023-04-23T22:03:00.045Z,3.97
2023-04-23T22:05:29.284Z,3.92
2023-04-23T22:07:56.796Z,3.83
2023-04-23T22:10:23.815Z,3.90
2023-04-23T22:12:50.744Z,5.05
2023-04-23T22:15:19.207Z,4.28
2023-04-23T22:17:50.320Z,4.65
2023-04-23T22:20:18.967Z,4.72
2023-04-23T22:22:46.188Z,4.32
2023-04-23T22:25:13.046Z,4.50
2023-04-23T22:27:41.135Z,3.95
2023-04-23T22:30:09.833Z,3.80
2023-04-23T22:32:38.438Z,4.05
2023-04-23T22:35:06.699Z,4.90
2023-04-23T22:37:34.221Z,5.00
2023-04-23T22:40:01.557Z,5.03
2023-04-23T22:42:28.216Z,5.22
2023-04-23T22:44:55.165Z,5.88
2023-04-23T22:47:22.340Z,5.57
2023-04-23T22:49:50.146Z,6.22
2023-04-23T22:52:16.900Z,7.07
2023-04-23T22:54:43.577Z,7.20
2023-04-23T22:57:11.502Z,7.05
2023-04-23T22:59:41.846Z,6.95
2023-04-23T23:02:08.740Z,7.75
2023-04-23T23:04:37.809Z,9.23
2023-04-23T23:07:06.243Z,8.55
2023-04-23T23:09:32.925Z,9.02
2023-04-23T23:12:03.866Z,10.65
2023-04-23T23:14:31.717Z,10.43
2023-04-23T23:16:58.900Z,11.93
2023-04-23T23:19:26.981Z,11.95
2023-04-23T23:21:53.734Z,10.88
2023-04-23T23:24:21.633Z,11.35
2023-04-23T23:26:48.298Z,11.73
2023-04-23T23:29:14.955Z,10.10
2023-04-23T23:31:42.060Z,11.40
2023-04-23T23:34:08.860Z,10.18
2023-04-23T23:36:35.760Z,10.68
2023-04-23T23:39:02.485Z,10.70
2023-04-23T23:41:29.207Z,11.32
2023-04-23T23:43:55.842Z,10.88
2023-04-23T23:46:22.625Z,10.88
2023-04-23T23:48:50.479Z,10.90
2023-04-23T23:51:17.144Z,10.40
2023-04-23T23:53:43.725Z,10.77
2023-04-23T23:56:10.668Z,9.30
2023-04-23T23:58:37.244Z,9.13
